Time,TemperatureF,DewpointF,PressureIn,WindDirection,WindDirectionDegrees,WindSpeedMPH,WindSpeedGustMPH,Humidity,HourlyPrecipIn,Conditions,Clouds,dailyrainin,SoftwareType,DateUTC
2013-11-03 00:01:00,56.6,47.7,29.80,West,262,5.0,11.0,72,0.00,,---,0.01,VWS V14.01,2013-11-03 04:01:00,
2013-11-03 00:02:00,56.5,47.6,29.80,West,271,4.0,10.0,72,0.00,,---,0.00,VWS V14.01,2013-11-03 04:02:00,
2013-11-03 00:07:00,56.4,47.5,29.80,West,266,7.0,14.0,72,0.00,,---,0.00,VWS V14.01,2013-11-03 04:07:00,
2013-11-03 00:12:00,56.2,46.9,29.80,West,272,7.0,14.0,71,0.00,,---,0.00,VWS V14.01,2013-11-03 04:12:00,
2013-11-03 00:17:00,56.2,47.3,29.80,WNW,288,3.0,14.0,72,0.00,,---,0.00,VWS V14.01,2013-11-03 04:17:00,
2013-11-03 00:22:00,56.0,47.1,29.80,West,261,7.0,14.0,72,0.00,,---,0.00,VWS V14.01,2013-11-03 04:22:00,
2013-11-03 00:27:00,56.0,47.1,29.80,WNW,295,6.0,14.0,72,0.00,,---,0.00,VWS V14.01,2013-11-03 04:27:00,
2013-11-03 00:32:00,55.9,46.7,29.80,West,267,5.0,9.0,71,0.00,,---,0.00,VWS V14.01,2013-11-03 04:32:00,
2013-11-03 00:37:00,55.7,46.8,29.80,WNW,285,4.0,10.0,72,0.00,,---,0.00,VWS V14.01,2013-11-03 04:37:00,
2013-11-03 00:42:00,55.7,46.8,29.80,West,267,5.0,11.0,72,0.00,,---,0.00,VWS V14.01,2013-11-03 04:42:00,
2013-11-03 00:47:00,55.7,46.5,29.80,WSW,257,9.0,12.0,71,0.00,,---,0.00,VWS V14.01,2013-11-03 04:47:00,
2013-11-03 00:52:00,55.7,46.5,29.80,WSW,250,9.0,12.0,71,0.00,,---,0.00,VWS V14.01,2013-11-03 04:52:00,
2013-11-03 00:57:00,55.5,46.3,29.80,WSW,240,8.0,12.0,71,0.00,,---,0.00,VWS V14.01,2013-11-03 04:57:00,
2013-11-03 01:00:00,53.8,45.4,29.82,West,281,7.0,12.0,73,0.00,,---,0.00,VWS V14.01,2013-11-03 05:00:00,
2013-11-03 01:01:00,53.8,45.7,29.82,NW,311,4.0,12.0,74,0.00,,---,0.00,VWS V14.01,2013-11-03 05:01:00,
2013-11-03 01:02:00,55.3,46.8,29.80,West,268,7.0,7.0,73,0.00,,---,0.00,VWS V14.01,2013-11-03 05:02:00,
2013-11-03 01:03:00,53.7,45.6,29.82,West,273,7.0,12.0,74,0.00,,---,0.00,VWS V14.01,2013-11-03 05:03:00,
2013-11-03 01:04:00,53.7,45.3,29.83,NW,312,8.0,12.0,73,0.00,,---,0.00,VWS V14.01,2013-11-03 05:04:00,
2013-11-03 01:05:00,53.6,45.2,29.82,WNW,296,8.0,12.0,73,0.00,,---,0.00,VWS V14.01,2013-11-03 05:05:00,
2013-11-03 01:06:00,53.6,45.2,29.82,WSW,252,11.0,12.0,73,0.00,,---,0.00,VWS V14.01,2013-11-03 05:06:00,
2013-11-03 01:07:00,55.1,46.6,29.80,West,275,7.0,11.0,73,0.00,,---,0.00,VWS V14.01,2013-11-03 05:07:00,
2013-11-03 01:08:00,53.5,45.1,29.82,WNW,292,10.0,15.0,73,0.00,,---,0.00,VWS V14.01,2013-11-03 05:08:00,
2013-11-03 01:09:00,53.5,45.1,29.83,NW,307,7.0,15.0,73,0.00,,---,0.00,VWS V14.01,2013-11-03 05:09:00,
2013-11-03 01:10:00,53.5,45.1,29.82,WNW,283,7.0,15.0,73,0.00,,---,0.00,VWS V14.01,2013-11-03 05:10:00,
2013-11-03 01:11:00,53.4,45.0,29.82,West,271,6.0,15.0,73,0.00,,---,0.00,VWS V14.01,2013-11-03 05:11:00,
2013-11-03 01:12:00,54.9,46.4,29.81,SW,228,9.0,11.0,73,0.00,,---,0.00,VWS V14.01,2013-11-03 05:12:00,
2013-11-03 01:13:00,53.4,45.3,29.82,West,271,7.0,15.0,74,0.00,,---,0.00,VWS V14.01,2013-11-03 05:13:00,
2013-11-03 01:14:00,53.4,45.3,29.82,WSW,253,6.0,15.0,74,0.00,,---,0.00,VWS V14.01,2013-11-03 05:14:00,
2013-11-03 01:17:00,54.7,46.6,29.81,WSW,244,4.0,11.0,74,0.00,,---,0.00,VWS V14.01,2013-11-03 05:17:00,
2013-11-03 01:22:00,54.5,46.0,29.81,WNW,285,5.0,11.0,73,0.00,,---,0.00,VWS V14.01,2013-11-03 05:22:00,
2013-11-03 01:27:00,54.3,45.8,29.81,West,280,9.0,13.0,73,0.00,,---,0.00,VWS V14.01,2013-11-03 05:27:00,
2013-11-03 01:32:00,54.3,46.2,29.81,WNW,288,4.0,11.0,74,0.00,,---,0.00,VWS V14.01,2013-11-03 05:32:00,
2013-11-03 01:37:00,54.2,46.1,29.81,WNW,291,9.0,11.0,74,0.00,,---,0.00,VWS V14.01,2013-11-03 05:37:00,
2013-11-03 01:42:00,54.1,46.0,29.81,WSW,247,5.0,11.0,74,0.00,,---,0.00,VWS V14.01,2013-11-03 05:42:00,
2013-11-03 01:47:00,54.0,45.9,29.82,SE,133,6.0,11.0,74,0.00,,---,0.00,VWS V14.01,2013-11-03 05:47:00,
2013-11-03 01:52:00,54.1,46.0,29.82,West,277,8.0,11.0,74,0.00,,---,0.00,VWS V14.01,2013-11-03 05:52:00,
2013-11-03 01:57:00,54.0,45.9,29.82,NW,307,7.0,12.0,74,0.00,,---,0.00,VWS V14.01,2013-11-03 05:57:00,
2013-11-03 01:06:00,53.6,45.2,29.82,WNW,288,7.0,12.0,73,0.00,,---,0.00,VWS V14.01,2013-11-03 06:06:00,
2013-11-03 01:11:00,53.5,45.1,29.82,NW,314,7.0,15.0,73,0.00,,---,0.00,VWS V14.01,2013-11-03 06:11:00,
2013-11-03 01:16:00,53.3,45.2,29.83,WNW,288,9.0,15.0,74,0.00,,---,0.00,VWS V14.01,2013-11-03 06:16:00,
2013-11-03 01:21:00,53.2,45.1,29.83,WNW,302,6.0,15.0,74,0.00,,---,0.00,VWS V14.01,2013-11-03 06:21:00,
2013-11-03 01:26:00,53.0,45.0,29.83,NW,308,10.0,15.0,74,0.00,,---,0.00,VWS V14.01,2013-11-03 06:26:00,
2013-11-03 01:31:00,52.8,44.8,29.83,West,270,7.0,15.0,74,0.00,,---,0.00,VWS V14.01,2013-11-03 06:31:00,
2013-11-03 01:36:00,52.7,44.7,29.83,North,352,7.0,15.0,74,0.00,,---,0.00,VWS V14.01,2013-11-03 06:36:00,
2013-11-03 01:41:00,52.6,44.9,29.84,WSW,243,6.0,15.0,75,0.00,,---,0.00,VWS V14.01,2013-11-03 06:41:00,
2013-11-03 01:46:00,52.5,44.8,29.84,West,271,9.0,15.0,75,0.00,,---,0.00,VWS V14.01,2013-11-03 06:46:00,
2013-11-03 01:51:00,52.4,44.7,29.84,WSW,257,10.0,15.0,75,0.00,,---,0.00,VWS V14.01,2013-11-03 06:51:00,
2013-11-03 01:56:00,52.4,44.7,29.84,West,264,8.0,15.0,75,0.00,,---,0.00,VWS V14.01,2013-11-03 06:56:00,
2013-11-03 02:01:00,52.4,44.7,29.84,WSW,252,11.0,12.0,75,0.00,,---,0.00,VWS V14.01,2013-11-03 07:01:00,
2013-11-03 02:06:00,52.4,45.1,29.84,West,279,6.0,15.0,76,0.00,,---,0.00,VWS V14.01,2013-11-03 07:06:00,
2013-11-03 02:11:00,52.4,45.1,29.84,NW,308,9.0,15.0,76,0.00,,---,0.00,VWS V14.01,2013-11-03 07:11:00,
2013-11-03 02:16:00,52.4,44.7,29.84,NW,314,10.0,15.0,75,0.00,,---,0.00,VWS V14.01,2013-11-03 07:16:00,
2013-11-03 02:21:00,52.2,44.9,29.84,WNW,286,8.0,15.0,76,0.00,,---,0.00,VWS V14.01,2013-11-03 07:21:00,
2013-11-03 02:26:00,52.2,44.9,29.84,WNW,303,8.0,15.0,76,0.00,,---,0.00,VWS V14.01,2013-11-03 07:26:00,
2013-11-03 02:31:00,52.0,44.7,29.84,West,260,11.0,11.0,76,0.00,,---,0.00,VWS V14.01,2013-11-03 07:31:00,
2013-11-03 02:36:00,52.0,44.7,29.84,WNW,297,4.0,14.0,76,0.00,,---,0.00,VWS V14.01,2013-11-03 07:36:00,
2013-11-03 02:41:00,51.8,44.8,29.84,NE,35,6.0,14.0,77,0.00,,---,0.00,VWS V14.01,2013-11-03 07:41:00,
2013-11-03 02:46:00,51.6,44.6,29.85,WNW,302,9.0,14.0,77,0.00,,---,0.00,VWS V14.01,2013-11-03 07:46:00,
2013-11-03 02:51:00,51.4,44.8,29.85,NW,310,4.0,14.0,78,0.00,,---,0.00,VWS V14.01,2013-11-03 07:51:00,
2013-11-03 02:56:00,51.2,44.6,29.85,West,274,4.0,14.0,78,0.00,,---,0.00,VWS V14.01,2013-11-03 07:56:00,
2013-11-03 03:01:00,51.1,44.5,29.85,WSW,245,7.0,12.0,78,0.00,,---,0.00,VWS V14.01,2013-11-03 08:01:00,
2013-11-03 03:06:00,50.9,44.6,29.85,WNW,282,7.0,12.0,79,0.00,,---,0.00,VWS V14.01,2013-11-03 08:06:00,
2013-11-03 03:11:00,50.7,44.4,29.85,West,265,9.0,12.0,79,0.00,,---,0.00,VWS V14.01,2013-11-03 08:11:00,
2013-11-03 03:16:00,50.5,44.2,29.85,WNW,287,8.0,15.0,79,0.00,,---,0.00,VWS V14.01,2013-11-03 08:16:00,
2013-11-03 03:21:00,50.4,44.1,29.85,West,274,6.0,15.0,79,0.00,,---,0.00,VWS V14.01,2013-11-03 08:21:00,
2013-11-03 03:26:00,50.3,44.4,29.85,West,270,11.0,15.0,80,0.00,,---,0.00,VWS V14.01,2013-11-03 08:26:00,
2013-11-03 03:31:00,50.1,44.2,29.86,WNW,288,8.0,9.0,80,0.00,,---,0.00,VWS V14.01,2013-11-03 08:31:00,
2013-11-03 03:36:00,50.0,44.1,29.86,NW,305,10.0,14.0,80,0.00,,---,0.00,VWS V14.01,2013-11-03 08:36:00,
2013-11-03 03:41:00,49.9,44.3,29.86,WNW,295,8.0,14.0,81,0.00,,---,0.00,VWS V14.01,2013-11-03 08:41:00,
2013-11-03 03:46:00,49.7,44.1,29.86,WNW,298,8.0,14.0,81,0.00,,---,0.00,VWS V14.01,2013-11-03 08:46:00,
2013-11-03 03:51:00,49.6,44.0,29.87,NW,322,13.0,14.0,81,0.00,,---,0.00,VWS V14.01,2013-11-03 08:51:00,
2013-11-03 03:56:00,49.6,44.3,29.87,West,278,8.0,14.0,82,0.00,,---,0.00,VWS V14.01,2013-11-03 08:56:00,
2013-11-03 04:01:00,49.6,44.3,29.87,NW,315,6.0,10.0,82,0.00,,---,0.00,VWS V14.01,2013-11-03 09:01:00,
2013-11-03 04:06:00,49.7,44.4,29.87,WSW,257,8.0,13.0,82,0.00,,---,0.00,VWS V14.01,2013-11-03 09:06:00,
2013-11-03 04:11:00,49.9,44.6,29.87,WNW,302,9.0,15.0,82,0.00,,---,0.00,VWS V14.01,2013-11-03 09:11:00,
2013-11-03 04:16:00,49.9,44.6,29.88,WNW,292,8.0,15.0,82,0.00,,---,0.00,VWS V14.01,2013-11-03 09:16:00,
2013-11-03 04:22:00,49.8,44.5,29.88,NW,307,12.0,15.0,82,0.00,,---,0.00,VWS V14.01,2013-11-03 09:22:00,
2013-11-03 04:27:00,49.7,44.4,29.88,WNW,291,9.0,15.0,82,0.00,,---,0.00,VWS V14.01,2013-11-03 09:27:00,
2013-11-03 04:32:00,49.6,44.3,29.88,WNW,291,9.0,13.0,82,0.00,,---,0.00,VWS V14.01,2013-11-03 09:32:00,
2013-11-03 04:37:00,49.5,44.6,29.88,West,274,5.0,13.0,83,0.00,,---,0.00,VWS V14.01,2013-11-03 09:37:00,
2013-11-03 04:42:00,49.4,44.5,29.88,North,10,11.0,15.0,83,0.00,,---,0.00,VWS V14.01,2013-11-03 09:42:00,
2013-11-03 04:47:00,49.3,44.4,29.89,WNW,303,8.0,15.0,83,0.00,,---,0.00,VWS V14.01,2013-11-03 09:47:00,
2013-11-03 04:52:00,49.2,44.3,29.89,West,281,10.0,15.0,83,0.00,,---,0.00,VWS V14.01,2013-11-03 09:52:00,
2013-11-03 04:57:00,49.2,44.3,29.89,WNW,287,8.0,15.0,83,0.00,,---,0.00,VWS V14.01,2013-11-03 09:57:00,
2013-11-03 05:02:00,49.2,44.6,29.89,WNW,295,9.0,11.0,84,0.00,,---,0.00,VWS V14.01,2013-11-03 10:02:00,
2013-11-03 05:07:00,49.1,44.5,29.89,WNW,284,12.0,17.0,84,0.00,,---,0.00,VWS V14.01,2013-11-03 10:07:00,
2013-11-03 05:12:00,49.1,44.5,29.90,NW,314,7.0,17.0,84,0.00,,---,0.00,VWS V14.01,2013-11-03 10:12:00,
2013-11-03 05:17:00,48.9,44.3,29.90,West,277,8.0,17.0,84,0.00,,---,0.00,VWS V14.01,2013-11-03 10:17:00,
2013-11-03 05:22:00,48.8,44.2,29.90,West,268,10.0,17.0,84,0.00,,---,0.00,VWS V14.01,2013-11-03 10:22:00,
2013-11-03 05:27:00,48.6,44.0,29.91,West,269,9.0,17.0,84,0.00,,---,0.00,VWS V14.01,2013-11-03 10:27:00,
2013-11-03 05:32:00,48.5,44.2,29.91,WNW,283,6.0,7.0,85,0.00,,---,0.00,VWS V14.01,2013-11-03 10:32:00,
2013-11-03 05:37:00,48.3,44.0,29.91,South,184,5.0,12.0,85,0.00,,---,0.00,VWS V14.01,2013-11-03 10:37:00,
2013-11-03 05:42:00,48.2,43.9,29.91,NW,305,7.0,14.0,85,0.00,,---,0.00,VWS V14.01,2013-11-03 10:42:00,
2013-11-03 05:47:00,48.0,43.7,29.92,WNW,301,10.0,16.0,85,0.00,,---,0.00,VWS V14.01,2013-11-03 10:47:00,
2013-11-03 05:52:00,47.9,43.6,29.92,NW,324,9.0,16.0,85,0.00,,---,0.00,VWS V14.01,2013-11-03 10:52:00,
2013-11-03 05:57:00,47.7,43.4,29.92,NNW,328,5.0,16.0,85,0.00,,---,0.00,VWS V14.01,2013-11-03 10:57:00,
2013-11-03 06:02:00,47.6,43.3,29.92,NE,34,6.0,12.0,85,0.00,,---,0.00,VWS V14.01,2013-11-03 11:02:00,
2013-11-03 06:07:00,47.5,43.5,29.92,ENE,67,9.0,13.0,86,0.00,,---,0.00,VWS V14.01,2013-11-03 11:07:00,
2013-11-03 06:12:00,47.4,43.4,29.93,NW,321,5.0,13.0,86,0.00,,---,0.00,VWS V14.01,2013-11-03 11:12:00,
2013-11-03 06:17:00,47.4,43.4,29.94,NE,49,7.0,13.0,86,0.00,,---,0.00,VWS V14.01,2013-11-03 11:17:00,
2013-11-03 06:22:00,47.3,43.3,29.94,SE,139,3.0,13.0,86,0.00,,---,0.00,VWS V14.01,2013-11-03 11:22:00,
2013-11-03 06:27:00,47.3,43.3,29.94,WNW,295,8.0,13.0,86,0.00,,---,0.00,VWS V14.01,2013-11-03 11:27:00,
2013-11-03 06:32:00,47.3,43.3,29.94,WNW,297,7.0,9.0,86,0.00,,---,0.00,VWS V14.01,2013-11-03 11:32:00,
2013-11-03 06:37:00,47.5,43.5,29.95,NNW,345,13.0,13.0,86,0.00,,---,0.00,VWS V14.01,2013-11-03 11:37:00,
2013-11-03 06:42:00,47.6,43.6,29.95,WNW,285,11.0,16.0,86,0.00,,---,0.00,VWS V14.01,2013-11-03 11:42:00,
2013-11-03 06:47:00,47.8,43.5,29.95,NW,306,11.0,16.0,85,0.00,,---,0.00,VWS V14.01,2013-11-03 11:47:00,
2013-11-03 06:52:00,47.9,43.6,29.96,East,96,7.0,16.0,85,0.00,,---,0.00,VWS V14.01,2013-11-03 11:52:00,
2013-11-03 06:57:00,48.1,43.8,29.96,NW,321,9.0,17.0,85,0.00,,---,0.00,VWS V14.01,2013-11-03 11:57:00,
2013-11-03 07:02:00,48.3,43.7,29.97,NE,42,2.0,13.0,84,0.00,,---,0.00,VWS V14.01,2013-11-03 12:02:00,
2013-11-03 07:07:00,48.5,43.9,29.97,NW,311,6.0,15.0,84,0.00,,---,0.00,VWS V14.01,2013-11-03 12:07:00,
2013-11-03 07:12:00,48.6,44.0,29.97,WNW,293,13.0,16.0,84,0.00,,---,0.00,VWS V14.01,2013-11-03 12:12:00,
2013-11-03 07:17:00,48.7,44.1,29.98,WNW,300,7.0,17.0,84,0.00,,---,0.00,VWS V14.01,2013-11-03 12:17:00,
2013-11-03 07:22:00,48.8,44.2,29.98,NW,316,14.0,18.0,84,0.00,,---,0.00,VWS V14.01,2013-11-03 12:22:00,
2013-11-03 07:27:00,49.0,44.4,29.99,WSW,248,4.0,18.0,84,0.00,,---,0.00,VWS V14.01,2013-11-03 12:27:00,
2013-11-03 07:32:00,49.0,44.4,29.99,WNW,299,7.0,13.0,84,0.00,,---,0.00,VWS V14.01,2013-11-03 12:32:00,
2013-11-03 07:37:00,49.1,44.5,29.99,NNE,23,9.0,18.0,84,0.00,,---,0.00,VWS V14.01,2013-11-03 12:37:00,
2013-11-03 07:42:00,49.3,44.7,29.99,NW,315,10.0,18.0,84,0.00,,---,0.00,VWS V14.01,2013-11-03 12:42:00,
2013-11-03 07:47:00,49.5,44.6,29.99,NE,55,5.0,18.0,83,0.00,,---,0.00,VWS V14.01,2013-11-03 12:47:00,
2013-11-03 07:52:00,49.9,45.0,30.00,NW,318,9.0,18.0,83,0.00,,---,0.00,VWS V14.01,2013-11-03 12:52:00,
2013-11-03 07:57:00,50.0,44.7,30.00,NE,51,10.0,18.0,82,0.00,,---,0.00,VWS V14.01,2013-11-03 12:57:00,
2013-11-03 08:02:00,50.3,45.0,30.00,NW,319,14.0,15.0,82,0.00,,---,0.00,VWS V14.01,2013-11-03 13:02:00,
2013-11-03 08:07:00,50.6,45.0,30.01,NW,305,14.0,15.0,81,0.00,,---,0.00,VWS V14.01,2013-11-03 13:07:00,
2013-11-03 08:12:00,50.8,44.5,30.01,North,4,4.0,16.0,79,0.00,,---,0.00,VWS V14.01,2013-11-03 13:12:00,
2013-11-03 08:17:00,50.8,44.9,30.02,NE,38,4.0,17.0,80,0.00,,---,0.00,VWS V14.01,2013-11-03 13:17:00,
2013-11-03 08:22:00,50.7,44.8,30.02,WNW,290,13.0,17.0,80,0.00,,---,0.00,VWS V14.01,2013-11-03 13:22:00,
2013-11-03 08:27:00,50.6,44.7,30.02,NW,307,8.0,17.0,80,0.00,,---,0.00,VWS V14.01,2013-11-03 13:27:00,
2013-11-03 08:32:00,50.4,44.5,30.03,East,80,11.0,15.0,80,0.00,,---,0.00,VWS V14.01,2013-11-03 13:32:00,
2013-11-03 08:37:00,50.3,44.4,30.03,North,349,12.0,18.0,80,0.00,,---,0.00,VWS V14.01,2013-11-03 13:37:00,
2013-11-03 08:42:00,50.1,44.2,30.03,WNW,300,12.0,18.0,80,0.00,,---,0.00,VWS V14.01,2013-11-03 13:42:00,
2013-11-03 08:47:00,50.2,44.3,30.04,WNW,296,9.0,21.0,80,0.00,,---,0.00,VWS V14.01,2013-11-03 13:47:00,
2013-11-03 08:52:00,50.3,44.4,30.04,NNE,13,10.0,21.0,80,0.00,,---,0.00,VWS V14.01,2013-11-03 13:52:00,
2013-11-03 08:57:00,50.4,44.5,30.04,North,353,8.0,21.0,80,0.00,,---,0.00,VWS V14.01,2013-11-03 13:57:00,
2013-11-03 09:02:00,50.4,44.1,30.04,West,281,7.0,13.0,79,0.00,,---,0.00,VWS V14.01,2013-11-03 14:02:00,
2013-11-03 09:07:00,50.4,44.1,30.04,NNE,32,2.0,16.0,79,0.00,,---,0.00,VWS V14.01,2013-11-03 14:07:00,
2013-11-03 09:12:00,50.4,43.8,30.05,SW,224,6.0,18.0,78,0.00,,---,0.00,VWS V14.01,2013-11-03 14:12:00,
2013-11-03 09:17:00,50.6,44.0,30.05,West,262,7.0,18.0,78,0.00,,---,0.00,VWS V14.01,2013-11-03 14:17:00,
2013-11-03 09:22:00,50.4,43.8,30.05,NE,35,10.0,20.0,78,0.00,,---,0.00,VWS V14.01,2013-11-03 14:22:00,
2013-11-03 09:27:00,50.4,43.8,30.05,SW,217,3.0,20.0,78,0.00,,---,0.00,VWS V14.01,2013-11-03 14:27:00,
2013-11-03 09:33:00,50.2,43.3,30.05,ENE,63,3.0,13.0,77,0.00,,---,0.00,VWS V14.01,2013-11-03 14:33:00,
2013-11-03 09:38:00,50.2,43.3,30.06,NW,309,12.0,18.0,77,0.00,,---,0.00,VWS V14.01,2013-11-03 14:38:00,
2013-11-03 09:43:00,50.2,43.6,30.06,SW,221,11.0,19.0,78,0.00,,---,0.00,VWS V14.01,2013-11-03 14:43:00,
2013-11-03 09:48:00,50.2,43.3,30.07,North,4,8.0,19.0,77,0.00,,---,0.00,VWS V14.01,2013-11-03 14:48:00,
2013-11-03 09:53:00,50.1,42.8,30.07,East,79,8.0,19.0,76,0.00,,---,0.00,VWS V14.01,2013-11-03 14:53:00,
2013-11-03 09:58:00,50.1,43.2,30.07,ENE,61,3.0,19.0,77,0.00,,---,0.00,VWS V14.01,2013-11-03 14:58:00,
2013-11-03 10:03:00,50.1,42.8,30.08,NW,304,6.0,10.0,76,0.00,,---,0.00,VWS V14.01,2013-11-03 15:03:00,
2013-11-03 10:08:00,49.8,42.2,30.08,NW,304,14.0,16.0,75,0.00,,---,0.00,VWS V14.01,2013-11-03 15:08:00,
2013-11-03 10:13:00,49.5,41.9,30.08,NNW,331,5.0,20.0,75,0.00,,---,0.00,VWS V14.01,2013-11-03 15:13:00,
2013-11-03 10:18:00,49.5,42.3,30.08,West,272,7.0,20.0,76,0.00,,---,0.00,VWS V14.01,2013-11-03 15:18:00,
2013-11-03 10:23:00,49.5,42.3,30.09,NW,316,10.0,20.0,76,0.00,,---,0.00,VWS V14.01,2013-11-03 15:23:00,
2013-11-03 10:28:00,49.7,42.5,30.09,West,272,10.0,20.0,76,0.00,,---,0.00,VWS V14.01,2013-11-03 15:28:00,
2013-11-03 10:33:00,49.4,42.5,30.09,WNW,299,16.0,17.0,77,0.00,,---,0.00,VWS V14.01,2013-11-03 15:33:00,
2013-11-03 10:38:00,49.2,43.0,30.10,NW,326,6.0,17.0,79,0.00,,---,0.00,VWS V14.01,2013-11-03 15:38:00,
2013-11-03 10:43:00,49.2,42.6,30.10,East,81,8.0,22.0,78,0.00,,---,0.00,VWS V14.01,2013-11-03 15:43:00,
2013-11-03 10:48:00,49.0,42.1,30.10,North,357,6.0,22.0,77,0.00,,---,0.00,VWS V14.01,2013-11-03 15:48:00,
2013-11-03 10:53:00,48.8,41.9,30.10,NNW,338,14.0,22.0,77,0.00,,---,0.00,VWS V14.01,2013-11-03 15:53:00,
2013-11-03 10:58:00,49.0,42.1,30.10,NNW,342,8.0,22.0,77,0.00,,---,0.00,VWS V14.01,2013-11-03 15:58:00,
2013-11-03 11:03:00,49.4,41.8,30.10,NW,311,13.0,20.0,75,0.00,,---,0.00,VWS V14.01,2013-11-03 16:03:00,
2013-11-03 11:08:00,50.3,42.3,30.10,WNW,298,8.0,20.0,74,0.00,,---,0.00,VWS V14.01,2013-11-03 16:08:00,
2013-11-03 11:13:00,50.3,41.6,30.10,WSW,244,14.0,20.0,72,0.00,,---,0.00,VWS V14.01,2013-11-03 16:13:00,
2013-11-03 11:18:00,50.2,42.2,30.10,West,260,5.0,20.0,74,0.00,,---,0.00,VWS V14.01,2013-11-03 16:18:00,
2013-11-03 11:23:00,50.5,42.2,30.11,WNW,297,4.0,21.0,73,0.00,,---,0.00,VWS V14.01,2013-11-03 16:23:00,
2013-11-03 11:28:00,50.2,42.2,30.11,NNW,342,12.0,21.0,74,0.00,,---,0.00,VWS V14.01,2013-11-03 16:28:00,
2013-11-03 11:33:00,49.6,41.3,30.11,NW,321,13.0,18.0,73,0.00,,---,0.00,VWS V14.01,2013-11-03 16:33:00,
2013-11-03 11:38:00,49.3,41.4,30.11,NW,326,10.0,20.0,74,0.00,,---,0.00,VWS V14.01,2013-11-03 16:38:00,
2013-11-03 11:43:00,49.5,41.6,30.11,West,275,5.0,20.0,74,0.00,,---,0.00,VWS V14.01,2013-11-03 16:43:00,
2013-11-03 11:48:00,49.7,41.4,30.11,North,356,13.0,20.0,73,0.00,,---,0.00,VWS V14.01,2013-11-03 16:48:00,
2013-11-03 11:53:00,49.8,41.5,30.11,NW,307,2.0,20.0,73,0.00,,---,0.00,VWS V14.01,2013-11-03 16:53:00,
2013-11-03 11:58:00,49.9,41.6,30.11,West,281,10.0,20.0,73,0.00,,---,0.00,VWS V14.01,2013-11-03 16:58:00,
2013-11-03 12:03:00,49.8,41.2,30.11,NNE,31,12.0,14.0,72,0.00,,---,0.00,VWS V14.01,2013-11-03 17:03:00,
2013-11-03 12:08:00,49.9,41.6,30.11,NNW,347,2.0,19.0,73,0.00,,---,0.00,VWS V14.01,2013-11-03 17:08:00,
2013-11-03 12:13:00,49.6,41.3,30.11,NW,305,9.0,19.0,73,0.00,,---,0.00,VWS V14.01,2013-11-03 17:13:00,
2013-11-03 12:18:00,49.5,41.2,30.11,NW,314,10.0,19.0,73,0.00,,---,0.00,VWS V14.01,2013-11-03 17:18:00,
2013-11-03 12:23:00,49.2,40.6,30.11,NE,51,5.0,19.0,72,0.00,,---,0.00,VWS V14.01,2013-11-03 17:23:00,
2013-11-03 12:28:00,49.3,41.0,30.11,WNW,293,9.0,19.0,73,0.00,,---,0.00,VWS V14.01,2013-11-03 17:28:00,
2013-11-03 12:33:00,49.5,40.9,30.12,ENE,69,2.0,16.0,72,0.00,,---,0.00,VWS V14.01,2013-11-03 17:33:00,
2013-11-03 12:38:00,49.8,41.2,30.11,NW,324,10.0,16.0,72,0.00,,---,0.00,VWS V14.01,2013-11-03 17:38:00,
2013-11-03 12:43:00,50.5,41.5,30.11,NW,304,4.0,16.0,71,0.00,,---,0.00,VWS V14.01,2013-11-03 17:43:00,
2013-11-03 12:48:00,51.3,41.5,30.11,SE,145,4.0,16.0,69,0.00,,---,0.00,VWS V14.01,2013-11-03 17:48:00,
2013-11-03 12:53:00,51.8,41.6,30.11,NW,309,7.0,16.0,68,0.00,,---,0.00,VWS V14.01,2013-11-03 17:53:00,
2013-11-03 12:58:00,52.0,41.0,30.11,WNW,286,3.0,16.0,66,0.00,,---,0.00,VWS V14.01,2013-11-03 17:58:00,
2013-11-03 13:03:00,52.2,40.4,30.11,WNW,299,4.0,13.0,64,0.00,,---,0.00,VWS V14.01,2013-11-03 18:03:00,
2013-11-03 13:08:00,52.2,41.2,30.11,WNW,292,7.0,14.0,66,0.00,,---,0.00,VWS V14.01,2013-11-03 18:08:00,
2013-11-03 13:13:00,52.3,40.5,30.11,West,274,6.0,14.0,64,0.00,,---,0.00,VWS V14.01,2013-11-03 18:13:00,
2013-11-03 13:18:00,52.3,40.5,30.11,WNW,298,3.0,14.0,64,0.00,,---,0.00,VWS V14.01,2013-11-03 18:18:00,
2013-11-03 13:23:00,52.0,40.2,30.12,NW,309,11.0,15.0,64,0.00,,---,0.00,VWS V14.01,2013-11-03 18:23:00,
2013-11-03 13:28:00,52.1,40.7,30.12,West,281,12.0,15.0,65,0.00,,---,0.00,VWS V14.01,2013-11-03 18:28:00,
2013-11-03 13:33:00,52.4,40.2,30.12,NW,305,6.0,17.0,63,0.00,,---,0.00,VWS V14.01,2013-11-03 18:33:00,
2013-11-03 13:38:00,52.7,40.1,30.12,NNW,338,6.0,17.0,62,0.00,,---,0.00,VWS V14.01,2013-11-03 18:38:00,
2013-11-03 13:43:00,52.5,39.9,30.12,WNW,292,8.0,17.0,62,0.00,,---,0.00,VWS V14.01,2013-11-03 18:43:00,
2013-11-03 13:48:00,52.6,40.0,30.13,WNW,292,6.0,17.0,62,0.00,,---,0.00,VWS V14.01,2013-11-03 18:48:00,
2013-11-03 13:53:00,52.1,39.5,30.13,WSW,250,3.0,17.0,62,0.00,,---,0.00,VWS V14.01,2013-11-03 18:53:00,
2013-11-03 13:58:00,51.9,39.7,30.13,West,268,9.0,17.0,63,0.00,,---,0.00,VWS V14.01,2013-11-03 18:58:00,
2013-11-03 14:03:00,52.3,40.1,30.13,WNW,283,6.0,13.0,63,0.00,,---,0.00,VWS V14.01,2013-11-03 19:03:00,
2013-11-03 14:08:00,52.0,39.4,30.14,West,273,8.0,15.0,62,0.00,,---,0.00,VWS V14.01,2013-11-03 19:08:00,
2013-11-03 14:13:00,52.3,39.7,30.14,North,1,2.0,15.0,62,0.00,,---,0.00,VWS V14.01,2013-11-03 19:13:00,
2013-11-03 14:18:00,52.2,39.6,30.14,SSW,194,7.0,18.0,62,0.00,,---,0.00,VWS V14.01,2013-11-03 19:18:00,
2013-11-03 14:23:00,51.8,39.2,30.14,WNW,295,7.0,18.0,62,0.00,,---,0.00,VWS V14.01,2013-11-03 19:23:00,
2013-11-03 14:28:00,51.5,38.9,30.14,WNW,282,5.0,18.0,62,0.00,,---,0.00,VWS V14.01,2013-11-03 19:28:00,
2013-11-03 14:33:00,52.0,39.4,30.15,WNW,303,3.0,10.0,62,0.00,,---,0.00,VWS V14.01,2013-11-03 19:33:00,
2013-11-03 14:38:00,52.2,39.2,30.15,SSW,207,6.0,15.0,61,0.00,,---,0.00,VWS V14.01,2013-11-03 19:38:00,
2013-11-03 14:43:00,52.4,38.9,30.15,West,271,9.0,15.0,60,0.00,,---,0.00,VWS V14.01,2013-11-03 19:43:00,
2013-11-03 14:48:00,52.6,39.1,30.15,South,184,11.0,15.0,60,0.00,,---,0.00,VWS V14.01,2013-11-03 19:48:00,
2013-11-03 14:53:00,52.4,38.9,30.16,NNW,340,3.0,15.0,60,0.00,,---,0.00,VWS V14.01,2013-11-03 19:53:00,
2013-11-03 14:58:00,52.0,38.6,30.16,NNW,342,5.0,17.0,60,0.00,,---,0.00,VWS V14.01,2013-11-03 19:58:00,
2013-11-03 15:03:00,52.1,39.1,30.16,ENE,71,6.0,13.0,61,0.00,,---,0.00,VWS V14.01,2013-11-03 20:03:00,
2013-11-03 15:08:00,52.2,38.8,30.16,North,355,9.0,13.0,60,0.00,,---,0.00,VWS V14.01,2013-11-03 20:08:00,
2013-11-03 15:13:00,51.7,38.7,30.16,North,352,1.0,17.0,61,0.00,,---,0.00,VWS V14.01,2013-11-03 20:13:00,
2013-11-03 15:18:00,51.4,38.4,30.17,ESE,106,2.0,17.0,61,0.00,,---,0.00,VWS V14.01,2013-11-03 20:18:00,
2013-11-03 15:23:00,51.6,38.6,30.17,NNE,26,5.0,17.0,61,0.00,,---,0.00,VWS V14.01,2013-11-03 20:23:00,
2013-11-03 15:28:00,51.8,37.1,30.17,West,277,6.0,19.0,57,0.00,,---,0.00,VWS V14.01,2013-11-03 20:28:00,
2013-11-03 15:33:00,52.1,36.9,30.17,NNW,327,3.0,8.0,56,0.00,,---,0.00,VWS V14.01,2013-11-03 20:33:00,
2013-11-03 15:38:00,52.1,36.9,30.18,WNW,283,3.0,16.0,56,0.00,,---,0.00,VWS V14.01,2013-11-03 20:38:00,
2013-11-03 15:43:00,52.2,37.0,30.18,NNW,347,4.0,16.0,56,0.00,,---,0.00,VWS V14.01,2013-11-03 20:43:00,
2013-11-03 15:48:00,52.2,36.5,30.18,NW,308,10.0,16.0,55,0.00,,---,0.00,VWS V14.01,2013-11-03 20:48:00,
2013-11-03 15:53:00,52.0,34.9,30.18,NE,47,11.0,19.0,52,0.00,,---,0.00,VWS V14.01,2013-11-03 20:53:00,
2013-11-03 15:58:00,52.1,35.0,30.18,NW,319,13.0,19.0,52,0.00,,---,0.00,VWS V14.01,2013-11-03 20:58:00,
2013-11-03 16:03:00,52.0,34.5,30.18,SE,145,6.0,17.0,51,0.00,,---,0.00,VWS V14.01,2013-11-03 21:03:00,
2013-11-03 16:08:00,51.9,34.8,30.19,West,269,3.0,17.0,52,0.00,,---,0.00,VWS V14.01,2013-11-03 21:08:00,
2013-11-03 16:13:00,51.9,33.9,30.19,NNW,336,6.0,17.0,50,0.00,,---,0.00,VWS V14.01,2013-11-03 21:13:00,
2013-11-03 16:18:00,51.8,32.8,30.19,WSW,254,5.0,17.0,48,0.00,,---,0.00,VWS V14.01,2013-11-03 21:18:00,
2013-11-03 16:23:00,51.7,31.6,30.19,North,352,4.0,20.0,46,0.00,,---,0.00,VWS V14.01,2013-11-03 21:23:00,
2013-11-03 16:28:00,51.5,31.4,30.19,WNW,297,6.0,20.0,46,0.00,,---,0.00,VWS V14.01,2013-11-03 21:28:00,
2013-11-03 16:33:00,51.5,32.5,30.20,ESE,108,3.0,9.0,48,0.00,,---,0.00,VWS V14.01,2013-11-03 21:33:00,
2013-11-03 16:38:00,51.3,32.8,30.20,NW,314,5.0,9.0,49,0.00,,---,0.00,VWS V14.01,2013-11-03 21:38:00,
2013-11-03 16:43:00,51.1,32.1,30.20,NW,313,8.0,15.0,48,0.00,,---,0.00,VWS V14.01,2013-11-03 21:43:00,
2013-11-03 16:48:00,50.9,31.4,30.20,North,353,6.0,15.0,47,0.00,,---,0.00,VWS V14.01,2013-11-03 21:48:00,
2013-11-03 16:53:00,50.7,31.7,30.21,WNW,283,3.0,15.0,48,0.00,,---,0.00,VWS V14.01,2013-11-03 21:53:00,
2013-11-03 16:58:00,50.4,32.0,30.21,SE,141,5.0,15.0,49,0.00,,---,0.00,VWS V14.01,2013-11-03 21:58:00,
2013-11-03 17:03:00,50.3,32.4,30.22,NE,45,1.0,9.0,50,0.00,,---,0.00,VWS V14.01,2013-11-03 22:03:00,
2013-11-03 17:08:00,50.1,31.7,30.22,WNW,303,6.0,11.0,49,0.00,,---,0.00,VWS V14.01,2013-11-03 22:08:00,
2013-11-03 17:13:00,50.0,33.6,30.22,South,191,1.0,11.0,53,0.00,,---,0.00,VWS V14.01,2013-11-03 22:13:00,
2013-11-03 17:18:00,49.8,33.8,30.23,WNW,283,6.0,11.0,54,0.00,,---,0.00,VWS V14.01,2013-11-03 22:18:00,
2013-11-03 17:23:00,49.5,34.5,30.23,WNW,285,8.0,11.0,56,0.00,,---,0.00,VWS V14.01,2013-11-03 22:23:00,
2013-11-03 17:28:00,49.0,34.0,30.23,SW,233,3.0,11.0,56,0.00,,---,0.00,VWS V14.01,2013-11-03 22:28:00,
2013-11-03 17:33:00,48.8,32.4,30.24,North,359,9.0,10.0,53,0.00,,---,0.00,VWS V14.01,2013-11-03 22:33:00,
2013-11-03 17:38:00,48.9,32.1,30.24,NW,309,4.0,11.0,52,0.00,,---,0.00,VWS V14.01,2013-11-03 22:38:00,
2013-11-03 17:43:00,48.8,32.0,30.25,North,4,5.0,15.0,52,0.00,,---,0.00,VWS V14.01,2013-11-03 22:43:00,
2013-11-03 17:48:00,48.7,32.3,30.25,West,278,6.0,15.0,53,0.00,,---,0.00,VWS V14.01,2013-11-03 22:48:00,
2013-11-03 17:53:00,48.4,33.0,30.25,WNW,297,7.0,15.0,55,0.00,,---,0.00,VWS V14.01,2013-11-03 22:53:00,
2013-11-03 17:58:00,48.1,32.7,30.25,NW,321,3.0,15.0,55,0.00,,---,0.00,VWS V14.01,2013-11-03 22:58:00,
2013-11-03 18:03:00,47.8,32.4,30.26,East,93,3.0,11.0,55,0.00,,---,0.00,VWS V14.01,2013-11-03 23:03:00,
2013-11-03 18:08:00,47.6,31.3,30.26,ENE,58,7.0,12.0,53,0.00,,---,0.00,VWS V14.01,2013-11-03 23:08:00,
2013-11-03 18:13:00,47.5,31.2,30.26,NNW,329,9.0,12.0,53,0.00,,---,0.00,VWS V14.01,2013-11-03 23:13:00,
2013-11-03 18:18:00,47.3,32.0,30.27,NW,315,7.0,12.0,55,0.00,,---,0.00,VWS V14.01,2013-11-03 23:18:00,
2013-11-03 18:23:00,47.1,31.3,30.27,NNW,336,6.0,16.0,54,0.00,,---,0.00,VWS V14.01,2013-11-03 23:23:00,
2013-11-03 18:28:00,47.2,31.0,30.27,WNW,293,8.0,16.0,53,0.00,,---,0.00,VWS V14.01,2013-11-03 23:28:00,
2013-11-03 18:33:00,47.1,30.4,30.27,NW,306,10.0,16.0,52,0.00,,---,0.00,VWS V14.01,2013-11-03 23:33:00,
2013-11-03 18:38:00,46.9,31.1,30.27,WNW,293,10.0,18.0,54,0.00,,---,0.00,VWS V14.01,2013-11-03 23:38:00,
2013-11-03 18:43:00,46.6,31.3,30.27,NW,309,15.0,18.0,55,0.00,,---,0.00,VWS V14.01,2013-11-03 23:43:00,
2013-11-03 18:48:00,46.4,31.1,30.28,NNW,328,5.0,18.0,55,0.00,,---,0.00,VWS V14.01,2013-11-03 23:48:00,
2013-11-03 18:53:00,46.2,30.5,30.28,NW,310,6.0,18.0,54,0.00,,---,0.00,VWS V14.01,2013-11-03 23:53:00,
2013-11-03 18:58:00,46.0,30.8,30.28,WNW,293,4.0,18.0,55,0.00,,---,0.00,VWS V14.01,2013-11-03 23:58:00,
2013-11-03 19:03:00,45.9,31.1,30.28,NE,45,9.0,15.0,56,0.00,,---,0.00,VWS V14.01,2013-11-04 00:03:00,
2013-11-03 19:08:00,46.1,31.3,30.29,NW,313,8.0,21.0,56,0.00,,---,0.00,VWS V14.01,2013-11-04 00:08:00,
2013-11-03 19:13:00,46.1,29.9,30.29,NW,326,13.0,21.0,53,0.00,,---,0.00,VWS V14.01,2013-11-04 00:13:00,
2013-11-03 19:18:00,46.0,30.3,30.29,NW,325,9.0,21.0,54,0.00,,---,0.00,VWS V14.01,2013-11-04 00:18:00,
2013-11-03 19:23:00,45.8,30.1,30.30,North,4,12.0,21.0,54,0.00,,---,0.00,VWS V14.01,2013-11-04 00:23:00,
2013-11-03 19:28:00,45.7,30.5,30.30,West,264,6.0,21.0,55,0.00,,---,0.00,VWS V14.01,2013-11-04 00:28:00,
2013-11-03 19:33:00,45.6,29.9,30.30,North,6,14.0,18.0,54,0.00,,---,0.00,VWS V14.01,2013-11-04 00:33:00,
2013-11-03 19:38:00,45.5,30.3,30.30,ENE,57,9.0,20.0,55,0.00,,---,0.00,VWS V14.01,2013-11-04 00:38:00,
2013-11-03 19:43:00,45.3,31.0,30.30,NNE,27,6.0,20.0,57,0.00,,---,0.00,VWS V14.01,2013-11-04 00:43:00,
2013-11-03 19:48:00,44.9,31.0,30.31,West,274,7.0,20.0,58,0.00,,---,0.00,VWS V14.01,2013-11-04 00:48:00,
2013-11-03 19:53:00,44.6,29.5,30.31,NW,316,14.0,20.0,55,0.00,,---,0.00,VWS V14.01,2013-11-04 00:53:00,
2013-11-03 19:58:00,44.2,28.2,30.31,NNW,345,9.0,21.0,53,0.00,,---,0.00,VWS V14.01,2013-11-04 00:58:00,
2013-11-03 20:03:00,43.9,28.4,30.31,SW,228,12.0,20.0,54,0.00,,---,0.00,VWS V14.01,2013-11-04 01:03:00,
2013-11-03 20:08:00,43.7,28.6,30.32,WNW,285,14.0,20.0,55,0.00,,---,0.00,VWS V14.01,2013-11-04 01:08:00,
2013-11-03 20:13:00,43.5,28.9,30.32,South,188,11.0,20.0,56,0.00,,---,0.00,VWS V14.01,2013-11-04 01:13:00,
2013-11-03 20:18:00,43.3,28.2,30.32,WNW,286,6.0,22.0,55,0.00,,---,0.00,VWS V14.01,2013-11-04 01:18:00,
2013-11-03 20:23:00,43.2,27.7,30.32,NW,316,12.0,22.0,54,0.00,,---,0.00,VWS V14.01,2013-11-04 01:23:00,
2013-11-03 20:28:00,43.0,28.4,30.33,NW,312,11.0,22.0,56,0.00,,---,0.00,VWS V14.01,2013-11-04 01:28:00,
2013-11-03 20:33:00,42.8,27.8,30.33,NNE,24,5.0,20.0,55,0.00,,---,0.00,VWS V14.01,2013-11-04 01:33:00,
2013-11-03 20:38:00,42.6,27.6,30.34,West,278,7.0,20.0,55,0.00,,---,0.00,VWS V14.01,2013-11-04 01:38:00,
2013-11-03 20:43:00,42.4,27.4,30.34,NW,315,18.0,20.0,55,0.00,,---,0.00,VWS V14.01,2013-11-04 01:43:00,
2013-11-03 20:48:00,42.2,26.8,30.35,WSW,240,18.0,21.0,54,0.00,,---,0.00,VWS V14.01,2013-11-04 01:48:00,
2013-11-03 20:53:00,42.0,27.5,30.35,NNW,327,9.0,22.0,56,0.00,,---,0.00,VWS V14.01,2013-11-04 01:53:00,
2013-11-03 20:58:00,41.9,26.9,30.35,NW,309,11.0,22.0,55,0.00,,---,0.00,VWS V14.01,2013-11-04 01:58:00,
2013-11-03 21:03:00,41.7,26.7,30.36,WNW,290,7.0,18.0,55,0.00,,---,0.00,VWS V14.01,2013-11-04 02:03:00,
2013-11-03 21:08:00,41.5,26.5,30.36,NNW,330,16.0,21.0,55,0.00,,---,0.00,VWS V14.01,2013-11-04 02:08:00,
2013-11-03 21:13:00,41.3,26.4,30.36,North,349,19.0,21.0,55,0.00,,---,0.00,VWS V14.01,2013-11-04 02:13:00,
2013-11-03 21:18:00,41.1,26.2,30.37,NNW,333,11.0,23.0,55,0.00,,---,0.00,VWS V14.01,2013-11-04 02:18:00,
2013-11-03 21:23:00,41.0,27.0,30.37,West,277,8.0,23.0,57,0.00,,---,0.00,VWS V14.01,2013-11-04 02:23:00,
2013-11-03 21:28:00,40.8,26.3,30.37,East,92,3.0,23.0,56,0.00,,---,0.00,VWS V14.01,2013-11-04 02:28:00,
2013-11-03 21:33:00,40.7,26.2,30.37,East,101,8.0,20.0,56,0.00,,---,0.00,VWS V14.01,2013-11-04 02:33:00,
2013-11-03 21:38:00,40.5,24.7,30.38,ESE,108,10.0,20.0,53,0.00,,---,0.00,VWS V14.01,2013-11-04 02:38:00,
2013-11-03 21:43:00,40.3,25.4,30.38,NW,311,13.0,20.0,55,0.00,,---,0.00,VWS V14.01,2013-11-04 02:43:00,
2013-11-03 21:48:00,40.3,26.7,30.38,West,267,5.0,20.0,58,0.00,,---,0.00,VWS V14.01,2013-11-04 02:48:00,
2013-11-03 21:53:00,40.1,25.7,30.38,NNE,20,7.0,20.0,56,0.00,,---,0.00,VWS V14.01,2013-11-04 02:53:00,
2013-11-03 21:58:00,39.9,26.3,30.38,WSW,237,13.0,20.0,58,0.00,,---,0.00,VWS V14.01,2013-11-04 02:58:00,
2013-11-03 22:03:00,39.8,26.2,30.39,ENE,60,11.0,21.0,58,0.00,,---,0.00,VWS V14.01,2013-11-04 03:03:00,
2013-11-03 22:08:00,39.8,26.2,30.38,North,352,9.0,21.0,58,0.00,,---,0.00,VWS V14.01,2013-11-04 03:08:00,
2013-11-03 22:13:00,39.7,25.7,30.39,NW,307,14.0,21.0,57,0.00,,---,0.00,VWS V14.01,2013-11-04 03:13:00,
2013-11-03 22:18:00,39.5,25.5,30.39,WNW,296,8.0,21.0,57,0.00,,---,0.00,VWS V14.01,2013-11-04 03:18:00,
2013-11-03 22:23:00,39.5,26.0,30.39,West,281,4.0,21.0,58,0.00,,---,0.00,VWS V14.01,2013-11-04 03:23:00,
2013-11-03 22:28:00,39.3,26.2,30.39,NW,311,5.0,21.0,59,0.00,,---,0.00,VWS V14.01,2013-11-04 03:28:00,
2013-11-03 22:33:00,39.1,26.4,30.39,SW,228,3.0,13.0,60,0.00,,---,0.00,VWS V14.01,2013-11-04 03:33:00,
2013-11-03 22:38:00,38.9,25.8,30.40,NNW,342,9.0,13.0,59,0.00,,---,0.00,VWS V14.01,2013-11-04 03:38:00,
2013-11-03 22:43:00,38.8,24.9,30.40,WNW,295,6.0,18.0,57,0.00,,---,0.00,VWS V14.01,2013-11-04 03:43:00,
2013-11-03 22:48:00,38.8,25.7,30.40,WNW,291,8.0,18.0,59,0.00,,---,0.00,VWS V14.01,2013-11-04 03:48:00,
2013-11-03 22:53:00,38.7,25.2,30.40,NW,320,6.0,18.0,58,0.00,,---,0.00,VWS V14.01,2013-11-04 03:53:00,
2013-11-03 22:58:00,38.5,25.0,30.40,North,358,11.0,19.0,58,0.00,,---,0.00,VWS V14.01,2013-11-04 03:58:00,
2013-11-03 23:03:00,38.5,25.4,30.40,SSW,203,10.0,16.0,59,0.00,,---,0.00,VWS V14.01,2013-11-04 04:03:00,
2013-11-03 23:08:00,38.4,24.9,30.40,NW,307,10.0,21.0,58,0.00,,---,0.00,VWS V14.01,2013-11-04 04:08:00,
2013-11-03 23:14:00,38.3,25.2,30.40,NNW,337,12.0,21.0,59,0.00,,---,0.00,VWS V14.01,2013-11-04 04:14:00,
2013-11-03 23:19:00,38.3,24.8,30.40,North,352,20.0,21.0,58,0.00,,---,0.00,VWS V14.01,2013-11-04 04:19:00,
2013-11-03 23:24:00,38.3,25.6,30.41,NW,317,16.0,21.0,60,0.00,,---,0.00,VWS V14.01,2013-11-04 04:24:00,
2013-11-03 23:29:00,38.3,26.0,30.40,NE,53,13.0,24.0,61,0.00,,---,0.00,VWS V14.01,2013-11-04 04:29:00,
2013-11-03 23:33:00,38.2,26.0,30.40,NE,35,5.0,14.0,61,0.00,,---,0.00,VWS V14.01,2013-11-04 04:33:00,
2013-11-03 23:38:00,38.1,26.6,30.41,East,96,2.0,17.0,63,0.00,,---,0.00,VWS V14.01,2013-11-04 04:38:00,
2013-11-03 23:43:00,37.9,26.5,30.41,NNW,346,3.0,17.0,63,0.00,,---,0.00,VWS V14.01,2013-11-04 04:43:00,
2013-11-03 23:48:00,37.8,26.0,30.41,NNW,333,9.0,17.0,62,0.00,,---,0.00,VWS V14.01,2013-11-04 04:48:00,
2013-11-03 23:53:00,37.8,26.4,30.41,SSW,212,12.0,18.0,63,0.00,,---,0.00,VWS V14.01,2013-11-04 04:53:00,
2013-11-03 23:58:00,37.7,26.6,30.41,NW,318,5.0,18.0,64,0.00,,---,0.00,VWS V14.01,2013-11-04 04:58:00,